Rockwood, Illinois
Current Conditions -  °F | °C
As of 4:55 AM on Wednesday 22 Oct 2014 (Local Time) from KSAR Reporting Station
Clear Clear  
Wind Chill: 41°   Ceiling: Unl
Heat Index: 41°   Visibility: 10mi
Dew Point: 39°   Wind: 0mph
Humidity: 94%   Direction: NA
Pressure: 30.25"   Gusts: NA
Location:  37.84°N, 89.7°W
Report Text: KSAR 220955Z AUTO 00000KT 10SM CLR 05/04 A3025 RMK AO2 T00500041
Loading
Personal Weather Stations






























Interactive Weather Map
Tropical Storm Tracking
New forecast layout! Learn more

10-Day Weather Forecast

Advertisements
Track Severe Weather on mobile